createdAt,value
2022-11-08T00:02:21.013Z,100980.13
2022-11-08T00:05:44.734Z,100989.09
2022-11-08T00:09:05.159Z,100987.72
2022-11-08T00:12:26.534Z,100990.41
2022-11-08T00:15:29.410Z,100986.09
2022-11-08T00:18:32.163Z,100995.88
2022-11-08T00:21:36.102Z,100996.94
2022-11-08T00:24:39.146Z,101002.94
2022-11-08T00:27:41.767Z,101002.72
2022-11-08T00:30:45.511Z,100997.09
2022-11-08T00:33:48.081Z,101002.44
2022-11-08T00:36:53.061Z,101005.59
2022-11-08T00:39:55.771Z,101001.84
2022-11-08T00:42:58.306Z,101009.75
2022-11-08T00:46:03.747Z,101008.91
2022-11-08T00:49:06.990Z,101010.75
2022-11-08T00:52:11.151Z,101012.69
2022-11-08T00:55:14.050Z,101005.59
2022-11-08T00:58:17.039Z,100996.66
2022-11-08T01:01:22.224Z,100997.38
2022-11-08T01:04:25.108Z,101003.56
2022-11-08T01:07:29.045Z,101003.59
2022-11-08T01:10:31.901Z,100994.84
2022-11-08T01:13:35.268Z,101003.97
2022-11-08T01:16:38.059Z,101008.22
2022-11-08T01:19:40.833Z,100997.91
2022-11-08T01:22:44.794Z,101000.44
2022-11-08T01:25:49.365Z,100993.53
2022-11-08T01:28:52.428Z,100988.34
2022-11-08T01:31:55.380Z,100990.09
2022-11-08T01:34:58.046Z,100989.03
2022-11-08T01:38:02.195Z,100981.41
2022-11-08T01:41:05.163Z,100983.41
2022-11-08T01:44:15.222Z,100986.72
2022-11-08T01:47:17.994Z,100990.69
2022-11-08T01:50:20.742Z,100986.28
2022-11-08T01:53:25.100Z,100985.75
2022-11-08T01:56:28.647Z,100989.31
2022-11-08T01:59:32.776Z,100989.81
2022-11-08T02:02:38.128Z,100994.50
2022-11-08T02:05:41.492Z,100983.53
2022-11-08T02:08:46.196Z,100988.75
2022-11-08T02:11:50.931Z,100984.25
2022-11-08T02:14:53.577Z,100973.94
2022-11-08T02:17:56.445Z,100974.50
2022-11-08T02:21:06.760Z,100973.41
2022-11-08T02:24:12.852Z,100978.84
2022-11-08T02:27:16.270Z,100974.31
2022-11-08T02:30:18.981Z,100980.38
2022-11-08T02:33:23.462Z,100984.03
2022-11-08T02:36:26.454Z,100979.13
2022-11-08T02:39:32.481Z,100978.16
2022-11-08T02:42:35.300Z,100984.63
2022-11-08T02:45:37.936Z,100976.88
2022-11-08T02:48:40.683Z,100978.47
2022-11-08T02:51:43.375Z,100981.34
2022-11-08T02:54:47.454Z,100976.56
2022-11-08T02:57:50.166Z,100979.91
2022-11-08T03:00:52.798Z,100978.25
2022-11-08T03:03:55.600Z,100981.03
2022-11-08T03:06:58.167Z,100987.63
2022-11-08T03:10:02.190Z,100981.97
2022-11-08T03:13:06.359Z,100985.97
2022-11-08T03:16:09.468Z,100979.75
2022-11-08T03:19:12.966Z,100973.16
2022-11-08T03:22:16.509Z,100974.19
2022-11-08T03:25:20.656Z,100968.50
2022-11-08T03:28:23.700Z,100972.00
2022-11-08T03:31:26.700Z,100975.09
2022-11-08T03:34:29.428Z,100970.09
2022-11-08T03:37:32.063Z,100966.59
2022-11-08T03:40:36.232Z,100968.97
2022-11-08T03:43:38.810Z,100972.56
2022-11-08T03:46:41.498Z,100961.63
2022-11-08T03:49:44.197Z,100967.69
2022-11-08T03:52:48.698Z,100961.63
2022-11-08T03:55:52.749Z,100968.22
2022-11-08T03:58:55.291Z,100960.25
2022-11-08T04:01:58.032Z,100960.50
2022-11-08T04:05:01.571Z,100959.44
2022-11-08T04:08:05.870Z,100964.31
2022-11-08T04:11:27.561Z,100957.97
2022-11-08T04:14:47.455Z,100967.63
2022-11-08T04:18:08.837Z,100962.03
2022-11-08T04:21:21.927Z,100966.13
2022-11-08T04:24:24.735Z,100965.25
2022-11-08T04:27:28.775Z,100964.31
2022-11-08T04:30:31.589Z,100965.00
2022-11-08T04:33:34.360Z,100964.16
2022-11-08T04:36:37.226Z,100961.28
2022-11-08T04:39:39.865Z,100966.91
2022-11-08T04:42:46.186Z,100962.81
2022-11-08T04:45:48.744Z,100970.28
2022-11-08T04:48:53.946Z,100971.84
2022-11-08T04:51:56.616Z,100974.28
2022-11-08T04:54:59.188Z,100975.75
2022-11-08T04:58:03.207Z,100978.63
2022-11-08T05:01:07.471Z,100971.97
2022-11-08T05:04:10.243Z,100977.63
2022-11-08T05:07:12.917Z,100975.41
2022-11-08T05:10:15.692Z,100968.06
2022-11-08T05:13:19.964Z,100971.16
2022-11-08T05:16:25.828Z,100973.75
2022-11-08T05:19:42.458Z,100975.72
2022-11-08T05:23:17.492Z,100969.16
2022-11-08T05:26:21.277Z,100964.19
2022-11-08T05:29:25.297Z,100963.19
2022-11-08T05:32:27.860Z,100966.94
2022-11-08T05:35:30.586Z,100966.75
2022-11-08T05:38:33.329Z,100961.09
2022-11-08T05:41:35.918Z,100962.69
2022-11-08T05:44:39.967Z,100956.31
2022-11-08T05:47:45.680Z,100959.19
2022-11-08T05:50:49.506Z,100964.94
2022-11-08T05:53:52.186Z,100954.66
2022-11-08T05:56:54.751Z,100958.72
2022-11-08T05:59:58.821Z,100960.88
2022-11-08T06:03:02.791Z,100970.09
2022-11-08T06:06:07.399Z,100964.38
2022-11-08T06:09:10.147Z,100974.06
2022-11-08T06:12:12.737Z,100973.88
2022-11-08T06:15:17.036Z,100982.47
2022-11-08T06:18:19.599Z,100975.72
2022-11-08T06:21:22.885Z,100976.56
2022-11-08T06:24:25.656Z,100985.09
2022-11-08T06:27:28.710Z,100980.31
2022-11-08T06:30:32.771Z,100979.81
2022-11-08T06:33:35.341Z,100986.94
2022-11-08T06:36:38.325Z,100987.44
2022-11-08T06:39:42.063Z,100988.59
2022-11-08T06:42:44.691Z,100987.59
2022-11-08T06:45:48.998Z,100990.75
2022-11-08T06:48:51.697Z,100995.56
2022-11-08T06:51:54.747Z,100993.69
2022-11-08T06:54:57.483Z,101000.91
2022-11-08T06:58:00.251Z,100995.75
2022-11-08T07:01:06.299Z,100993.88
2022-11-08T07:04:08.911Z,100992.31
2022-11-08T07:07:11.744Z,100988.22
2022-11-08T07:10:14.291Z,100998.50
2022-11-08T07:13:17.460Z,100994.53
2022-11-08T07:16:21.761Z,100994.34
2022-11-08T07:19:24.325Z,100983.81
2022-11-08T07:22:27.096Z,100983.38
2022-11-08T07:25:31.132Z,100982.22
2022-11-08T07:28:33.889Z,100983.81
2022-11-08T07:31:38.025Z,100985.88
2022-11-08T07:34:40.627Z,100995.53
2022-11-08T07:37:43.467Z,100995.59
2022-11-08T07:40:46.048Z,100996.06
2022-11-08T07:43:49.299Z,100994.81
2022-11-08T07:46:53.351Z,100996.31
2022-11-08T07:49:55.865Z,100998.03
2022-11-08T07:52:58.978Z,100993.16
2022-11-08T07:56:01.595Z,100991.09
2022-11-08T07:59:04.564Z,100982.81
2022-11-08T08:02:10.497Z,100978.59
2022-11-08T08:05:13.144Z,100974.06
2022-11-08T08:08:15.896Z,100978.47
2022-11-08T08:11:19.302Z,100970.41
2022-11-08T08:14:22.102Z,100976.72
2022-11-08T08:17:26.980Z,100969.34
2022-11-08T08:20:30.740Z,100964.47
2022-11-08T08:23:33.462Z,100967.75
2022-11-08T08:26:36.083Z,100971.13
2022-11-08T08:29:38.798Z,100968.91
2022-11-08T08:32:43.850Z,100955.03
2022-11-08T08:35:46.451Z,100965.50
2022-11-08T08:38:49.174Z,100959.88
2022-11-08T08:41:51.874Z,100958.94
2022-11-08T08:44:54.773Z,100958.22
2022-11-08T08:47:59.736Z,100955.47
2022-11-08T08:51:02.788Z,100954.84
2022-11-08T08:54:05.565Z,100950.72
2022-11-08T08:57:08.306Z,100954.91
2022-11-08T09:03:36.586Z,100949.41
2022-11-08T09:06:39.211Z,100955.28
2022-11-08T09:09:41.924Z,100940.69
2022-11-08T09:12:44.778Z,100947.91
2022-11-08T09:15:47.333Z,100950.13
2022-11-08T09:18:51.602Z,100951.56
2022-11-08T09:21:54.318Z,100946.63
2022-11-08T09:24:57.045Z,100949.19
2022-11-08T09:27:59.652Z,100946.69
2022-11-08T09:31:03.874Z,100946.75
2022-11-08T09:34:07.805Z,100938.50
2022-11-08T09:37:10.530Z,100948.72
2022-11-08T09:40:17.926Z,100937.41
2022-11-08T09:43:51.987Z,100937.59
2022-11-08T09:46:58.388Z,100934.53
2022-11-08T09:50:07.084Z,100937.75
2022-11-08T09:53:18.760Z,100947.22
2022-11-08T09:56:28.522Z,100941.94
2022-11-08T09:59:39.439Z,100934.09
2022-11-08T10:02:42.235Z,100934.41
2022-11-08T10:06:02.061Z,100920.75
2022-11-08T10:09:17.766Z,100936.97
2022-11-08T10:12:25.329Z,100925.97
2022-11-08T10:15:38.203Z,100916.63
2022-11-08T10:19:01.022Z,100923.13
2022-11-08T10:22:08.956Z,100914.88
2022-11-08T10:25:20.895Z,100910.06
2022-11-08T10:28:30.560Z,100911.47
2022-11-08T10:31:34.305Z,100906.81
2022-11-08T10:34:43.231Z,100908.13
2022-11-08T10:37:52.054Z,100909.03
2022-11-08T10:41:05.811Z,100902.03
2022-11-08T10:44:15.342Z,100898.69
2022-11-08T10:47:24.355Z,100895.16
2022-11-08T10:50:36.194Z,100895.91
2022-11-08T10:53:45.555Z,100896.31
2022-11-08T10:56:56.620Z,100890.91
2022-11-08T11:00:17.943Z,100886.63
2022-11-08T11:03:28.829Z,100876.34
2022-11-08T11:06:33.979Z,100884.84
2022-11-08T11:09:37.935Z,100880.00
2022-11-08T11:12:40.714Z,100876.50
2022-11-08T11:15:48.333Z,100877.22
2022-11-08T11:18:51.420Z,100859.13
2022-11-08T11:21:58.338Z,100868.66
2022-11-08T11:25:14.678Z,100866.13
2022-11-08T11:28:17.411Z,100864.03
2022-11-08T11:31:20.725Z,100863.44
2022-11-08T11:34:40.569Z,100861.16
2022-11-08T11:37:46.086Z,100852.63
2022-11-08T11:40:54.168Z,100838.84
2022-11-08T11:44:05.101Z,100847.38
2022-11-08T11:47:15.848Z,100846.13
2022-11-08T11:50:30.034Z,100834.28
2022-11-08T11:53:39.086Z,100831.84
2022-11-08T11:56:49.293Z,100832.13
2022-11-08T12:00:04.678Z,100833.88
2022-11-08T12:03:28.712Z,100822.34
2022-11-08T12:06:44.499Z,100821.00
2022-11-08T12:09:58.391Z,100818.00
2022-11-08T12:13:09.478Z,100805.97
2022-11-08T12:16:18.448Z,100809.22
2022-11-08T12:19:32.620Z,100791.75
2022-11-08T12:22:49.838Z,100786.84
2022-11-08T12:26:01.273Z,100779.25
2022-11-08T12:29:19.697Z,100776.38
2022-11-08T12:32:45.597Z,100781.88
2022-11-08T12:36:03.255Z,100778.69
2022-11-08T12:39:23.172Z,100778.94
2022-11-08T12:42:49.128Z,100778.63
2022-11-08T12:46:00.579Z,100770.63
2022-11-08T12:49:20.072Z,100764.69
2022-11-08T12:52:37.633Z,100764.50
2022-11-08T12:55:43.313Z,100768.94
2022-11-08T12:58:49.159Z,100757.78
2022-11-08T13:01:54.693Z,100754.81
2022-11-08T13:05:04.572Z,100755.81
2022-11-08T13:08:18.776Z,100745.16
2022-11-08T13:11:29.150Z,100743.53
2022-11-08T13:14:37.172Z,100743.69
2022-11-08T13:18:25.111Z,100717.22
2022-11-08T13:21:41.171Z,100706.66
2022-11-08T13:24:45.132Z,100718.72
2022-11-08T13:27:49.783Z,100723.22
2022-11-08T13:31:02.176Z,100731.09
2022-11-08T13:34:18.332Z,100725.72
2022-11-08T13:37:43.866Z,100720.16
2022-11-08T13:41:09.656Z,100725.34
2022-11-08T13:44:44.837Z,100725.94
2022-11-08T13:47:54.193Z,100727.59
2022-11-08T13:50:58.934Z,100740.47
2022-11-08T13:54:03.565Z,100721.53
2022-11-08T13:57:18.768Z,100727.81
2022-11-08T14:00:44.278Z,100727.72
2022-11-08T14:03:57.482Z,100723.44
2022-11-08T14:07:09.131Z,100716.38
2022-11-08T14:10:22.268Z,100715.25
2022-11-08T14:13:29.740Z,100715.59
2022-11-08T14:16:42.189Z,100717.16
2022-11-08T14:19:46.950Z,100722.31
2022-11-08T14:22:51.061Z,100719.72
2022-11-08T14:25:56.248Z,100715.50
2022-11-08T14:29:01.382Z,100714.16
2022-11-08T14:32:06.346Z,100710.91
2022-11-08T14:35:22.554Z,100708.97
2022-11-08T14:38:27.065Z,100702.88
2022-11-08T14:41:31.369Z,100705.72
2022-11-08T14:44:34.036Z,100703.41
2022-11-08T14:47:40.879Z,100688.97
2022-11-08T14:50:43.653Z,100691.72
2022-11-08T14:53:48.931Z,100683.78
2022-11-08T14:56:51.900Z,100683.91
2022-11-08T14:59:56.671Z,100681.19
2022-11-08T15:03:03.820Z,100675.84
2022-11-08T15:06:13.760Z,100680.97
2022-11-08T15:09:23.395Z,100678.16
2022-11-08T15:12:26.465Z,100670.94
2022-11-08T15:15:33.204Z,100674.66
2022-11-08T15:18:38.772Z,100665.94
2022-11-08T15:21:48.536Z,100664.50
2022-11-08T15:25:02.241Z,100663.19
2022-11-08T15:28:17.175Z,100678.69
2022-11-08T15:31:20.239Z,100680.34
2022-11-08T15:34:26.724Z,100685.56
2022-11-08T15:37:33.001Z,100677.97
2022-11-08T15:40:37.153Z,100682.06
2022-11-08T15:43:42.164Z,100677.88
2022-11-08T15:46:45.351Z,100675.56
2022-11-08T15:49:47.884Z,100675.06
2022-11-08T15:52:52.523Z,100672.72
2022-11-08T15:56:00.333Z,100676.47
2022-11-08T15:59:04.676Z,100673.59
2022-11-08T16:02:14.302Z,100672.72
2022-11-08T16:05:19.365Z,100669.94
2022-11-08T16:08:22.422Z,100664.91
2022-11-08T16:11:26.699Z,100656.22
2022-11-08T16:14:29.421Z,100663.59
2022-11-08T16:17:32.199Z,100658.38
2022-11-08T16:20:36.637Z,100655.66
2022-11-08T16:23:40.529Z,100659.56
2022-11-08T16:26:46.072Z,100654.66
2022-11-08T16:29:48.780Z,100664.13
2022-11-08T16:32:51.358Z,100653.81
2022-11-08T16:35:57.058Z,100654.66
2022-11-08T16:39:02.363Z,100656.66
2022-11-08T16:42:08.969Z,100656.50
2022-11-08T16:45:24.314Z,100650.38
2022-11-08T16:48:42.244Z,100650.66
2022-11-08T16:51:44.818Z,100648.69
2022-11-08T16:54:47.649Z,100642.28
2022-11-08T16:57:51.730Z,100639.06
2022-11-08T17:00:54.699Z,100643.47
2022-11-08T17:03:57.454Z,100645.41
2022-11-08T17:07:00.140Z,100640.03
2022-11-08T17:10:02.974Z,100641.13
2022-11-08T17:13:07.402Z,100646.31
2022-11-08T17:16:10.811Z,100654.78
2022-11-08T17:19:13.517Z,100639.56
2022-11-08T17:22:16.078Z,100641.31
2022-11-08T17:25:20.995Z,100644.84
2022-11-08T17:28:25.066Z,100649.00
2022-11-08T17:31:27.661Z,100649.91
2022-11-08T17:34:30.729Z,100642.72
2022-11-08T17:37:34.056Z,100653.25
2022-11-08T17:40:36.760Z,100643.81
2022-11-08T17:43:41.636Z,100631.69
2022-11-08T17:46:44.189Z,100631.44
2022-11-08T17:49:46.897Z,100645.50
2022-11-08T17:52:49.464Z,100648.59
2022-11-08T17:55:55.767Z,100644.72
2022-11-08T17:58:59.822Z,100654.03
2022-11-08T18:02:02.655Z,100644.16
2022-11-08T18:05:05.983Z,100646.09
2022-11-08T18:08:08.564Z,100658.84
2022-11-08T18:11:11.326Z,100653.81
2022-11-08T18:14:15.529Z,100650.84
2022-11-08T18:17:18.110Z,100646.66
2022-11-08T18:20:20.780Z,100650.28
2022-11-08T18:23:23.567Z,100643.94
2022-11-08T18:26:27.118Z,100651.16
2022-11-08T18:29:31.891Z,100656.91
2022-11-08T18:32:34.430Z,100654.97
2022-11-08T18:35:37.348Z,100648.94
2022-11-08T18:38:44.378Z,100658.63
2022-11-08T18:41:47.366Z,100651.69
2022-11-08T18:44:51.391Z,100644.00
2022-11-08T18:47:54.335Z,100628.00
2022-11-08T18:50:57.053Z,100641.75
2022-11-08T18:53:59.663Z,100646.75
2022-11-08T18:57:02.361Z,100647.84
2022-11-08T19:00:07.888Z,100647.25
2022-11-08T19:03:10.560Z,100637.88
2022-11-08T19:06:13.282Z,100641.50
2022-11-08T19:09:15.826Z,100651.63
2022-11-08T19:12:20.141Z,100641.25
2022-11-08T19:15:27.135Z,100639.50
2022-11-08T19:18:31.474Z,100649.50
2022-11-08T19:21:34.521Z,100654.16
2022-11-08T19:24:37.127Z,100648.69
2022-11-08T19:27:39.810Z,100655.56
2022-11-08T19:30:50.382Z,100653.63
2022-11-08T19:33:55.126Z,100653.66
2022-11-08T19:36:57.862Z,100667.13
2022-11-08T19:40:00.400Z,100667.13
2022-11-08T19:43:02.964Z,100668.25
2022-11-08T19:46:09.247Z,100672.97
2022-11-08T19:49:12.102Z,100663.84
2022-11-08T19:52:14.774Z,100653.38
2022-11-08T19:55:17.467Z,100655.88
2022-11-08T19:58:20.322Z,100648.97
2022-11-08T20:01:28.400Z,100639.88
2022-11-08T20:04:31.237Z,100644.56
2022-11-08T20:07:33.771Z,100639.94
2022-11-08T20:10:36.464Z,100629.72
2022-11-08T20:13:39.509Z,100637.09
2022-11-08T20:16:49.216Z,100628.31
2022-11-08T20:19:54.979Z,100623.63
2022-11-08T20:22:57.641Z,100626.97
2022-11-08T20:26:02.587Z,100634.41
2022-11-08T20:29:06.152Z,100639.06
2022-11-08T20:32:11.419Z,100621.41
2022-11-08T20:35:19.116Z,100631.34
2022-11-08T20:38:25.842Z,100632.75
2022-11-08T20:41:29.958Z,100638.81
2022-11-08T20:44:32.531Z,100633.28
2022-11-08T20:47:36.503Z,100643.78
2022-11-08T20:50:39.919Z,100641.88
2022-11-08T20:53:42.791Z,100638.28
2022-11-08T20:56:45.374Z,100650.97
2022-11-08T20:59:47.941Z,100638.53
2022-11-08T21:02:51.854Z,100649.00
2022-11-08T21:05:55.982Z,100645.72
2022-11-08T21:09:01.961Z,100642.72
2022-11-08T21:12:10.473Z,100641.06
2022-11-08T21:15:13.186Z,100636.66
2022-11-08T21:18:18.230Z,100639.41
2022-11-08T21:21:25.278Z,100631.94
2022-11-08T21:24:27.903Z,100632.25
2022-11-08T21:27:33.902Z,100627.84
2022-11-08T21:30:37.111Z,100627.81
2022-11-08T21:33:41.305Z,100628.94
2022-11-08T21:36:43.992Z,100629.50
2022-11-08T21:39:46.570Z,100630.31
2022-11-08T21:42:49.271Z,100638.81
2022-11-08T21:45:51.983Z,100644.63
2022-11-08T21:48:57.191Z,100639.66
2022-11-08T21:51:59.959Z,100635.53
2022-11-08T21:55:02.791Z,100634.44
2022-11-08T21:58:05.714Z,100630.84
2022-11-08T22:01:08.531Z,100625.63
2022-11-08T22:04:12.545Z,100633.88
2022-11-08T22:07:15.327Z,100618.72
2022-11-08T22:10:18.248Z,100622.59
2022-11-08T22:13:21.041Z,100622.59
2022-11-08T22:16:23.744Z,100619.00
2022-11-08T22:19:27.659Z,100619.84
2022-11-08T22:22:30.361Z,100619.56
2022-11-08T22:25:32.913Z,100628.13
2022-11-08T22:28:35.579Z,100619.84
2022-11-08T22:31:38.804Z,100632.78
2022-11-08T22:34:42.918Z,100630.88
2022-11-08T22:37:47.046Z,100629.50
2022-11-08T22:40:49.589Z,100631.44
2022-11-08T22:43:52.858Z,100635.00
2022-11-08T22:46:56.030Z,100632.25
2022-11-08T22:49:59.972Z,100629.22
2022-11-08T22:53:03.014Z,100634.19
2022-11-08T22:56:11.041Z,100633.06
2022-11-08T22:59:14.442Z,100632.81
2022-11-08T23:02:17.060Z,100636.09
2022-11-08T23:05:20.986Z,100628.94
2022-11-08T23:08:25.431Z,100626.19
2022-11-08T23:11:45.507Z,100635.28
2022-11-08T23:15:05.741Z,100630.06
2022-11-08T23:18:08.645Z,100625.91
2022-11-08T23:21:30.264Z,100628.97
2022-11-08T23:24:33.558Z,100627.03
2022-11-08T23:27:53.885Z,100628.94
2022-11-08T23:31:14.318Z,100628.97
2022-11-08T23:34:16.871Z,100633.06
2022-11-08T23:37:20.916Z,100630.88
2022-11-08T23:40:41.448Z,100642.16
2022-11-08T23:44:01.699Z,100637.78
2022-11-08T23:47:04.454Z,100645.75
2022-11-08T23:50:08.025Z,100642.09
2022-11-08T23:53:12.060Z,100643.75
2022-11-08T23:56:21.392Z,100642.09
2022-11-08T23:59:23.937Z,100644.03
